sensor_id;sensor_type;location;lat;lon;timestamp;P1;durP1;ratioP1;P2;durP2;ratioP2
31910;SDS011;18457;52.432;16.914;2023-07-22T00:02:03;3.50;;;3.20;;
31910;SDS011;18457;52.432;16.914;2023-07-22T00:04:35;4.60;;;3.30;;
31910;SDS011;18457;52.432;16.914;2023-07-22T00:07:06;3.90;;;3.40;;
31910;SDS011;18457;52.432;16.914;2023-07-22T00:09:38;5.50;;;3.30;;
31910;SDS011;18457;52.432;16.914;2023-07-22T00:12:12;6.60;;;3.30;;
31910;SDS011;18457;52.432;16.914;2023-07-22T00:14:44;4.10;;;3.50;;
31910;SDS011;18457;52.432;16.914;2023-07-22T00:17:15;3.30;;;3.00;;
31910;SDS011;18457;52.432;16.914;2023-07-22T00:19:48;4.60;;;3.00;;
31910;SDS011;18457;52.432;16.914;2023-07-22T00:22:20;4.10;;;3.40;;
31910;SDS011;18457;52.432;16.914;2023-07-22T00:24:52;4.80;;;3.20;;
31910;SDS011;18457;52.432;16.914;2023-07-22T00:27:24;3.60;;;3.20;;
31910;SDS011;18457;52.432;16.914;2023-07-22T00:29:56;3.50;;;3.20;;
31910;SDS011;18457;52.432;16.914;2023-07-22T00:32:28;3.60;;;3.00;;
31910;SDS011;18457;52.432;16.914;2023-07-22T00:35:00;4.90;;;3.20;;
31910;SDS011;18457;52.432;16.914;2023-07-22T00:37:32;5.20;;;3.20;;
31910;SDS011;18457;52.432;16.914;2023-07-22T00:40:05;4.30;;;3.60;;
31910;SDS011;18457;52.432;16.914;2023-07-22T00:42:41;3.30;;;2.90;;
31910;SDS011;18457;52.432;16.914;2023-07-22T00:45:13;6.40;;;3.20;;
31910;SDS011;18457;52.432;16.914;2023-07-22T00:47:45;5.30;;;3.80;;
31910;SDS011;18457;52.432;16.914;2023-07-22T00:50:17;4.60;;;3.70;;
31910;SDS011;18457;52.432;16.914;2023-07-22T00:52:49;5.10;;;3.90;;
31910;SDS011;18457;52.432;16.914;2023-07-22T00:55:21;6.00;;;4.00;;
31910;SDS011;18457;52.432;16.914;2023-07-22T00:57:54;4.30;;;3.50;;
31910;SDS011;18457;52.432;16.914;2023-07-22T01:02:56;3.50;;;3.10;;
31910;SDS011;18457;52.432;16.914;2023-07-22T01:05:29;4.90;;;3.80;;
31910;SDS011;18457;52.432;16.914;2023-07-22T01:08:02;4.70;;;3.60;;
31910;SDS011;18457;52.432;16.914;2023-07-22T01:10:35;6.30;;;3.70;;
31910;SDS011;18457;52.432;16.914;2023-07-22T01:13:07;7.00;;;3.60;;
31910;SDS011;18457;52.432;16.914;2023-07-22T01:15:39;4.10;;;3.20;;
31910;SDS011;18457;52.432;16.914;2023-07-22T01:18:11;5.60;;;3.60;;
31910;SDS011;18457;52.432;16.914;2023-07-22T01:20:43;4.80;;;3.60;;
31910;SDS011;18457;52.432;16.914;2023-07-22T01:23:16;4.70;;;3.70;;
31910;SDS011;18457;52.432;16.914;2023-07-22T01:25:48;7.80;;;3.80;;
31910;SDS011;18457;52.432;16.914;2023-07-22T01:28:21;7.10;;;3.70;;
31910;SDS011;18457;52.432;16.914;2023-07-22T01:30:53;4.70;;;3.50;;
31910;SDS011;18457;52.432;16.914;2023-07-22T01:33:26;4.60;;;3.70;;
31910;SDS011;18457;52.432;16.914;2023-07-22T01:35:58;5.80;;;3.60;;
31910;SDS011;18457;52.432;16.914;2023-07-22T01:41:01;8.00;;;3.80;;
31910;SDS011;18457;52.432;16.914;2023-07-22T01:43:32;6.80;;;3.50;;
31910;SDS011;18457;52.432;16.914;2023-07-22T01:46:04;5.90;;;3.80;;
31910;SDS011;18457;52.432;16.914;2023-07-22T01:48:36;6.50;;;4.00;;
31910;SDS011;18457;52.432;16.914;2023-07-22T01:51:08;7.20;;;4.30;;
31910;SDS011;18457;52.432;16.914;2023-07-22T01:53:40;7.90;;;3.90;;
31910;SDS011;18457;52.432;16.914;2023-07-22T01:56:13;6.30;;;4.00;;
31910;SDS011;18457;52.432;16.914;2023-07-22T01:58:45;7.80;;;4.20;;
31910;SDS011;18457;52.432;16.914;2023-07-22T02:01:17;6.10;;;3.80;;
31910;SDS011;18457;52.432;16.914;2023-07-22T02:03:49;5.20;;;4.00;;
31910;SDS011;18457;52.432;16.914;2023-07-22T02:06:21;8.70;;;3.90;;
31910;SDS011;18457;52.432;16.914;2023-07-22T02:08:53;5.30;;;4.00;;
31910;SDS011;18457;52.432;16.914;2023-07-22T02:14:00;4.40;;;4.00;;
31910;SDS011;18457;52.432;16.914;2023-07-22T02:16:36;6.00;;;4.40;;
31910;SDS011;18457;52.432;16.914;2023-07-22T02:19:08;7.10;;;4.70;;
31910;SDS011;18457;52.432;16.914;2023-07-22T02:21:42;5.40;;;4.10;;
31910;SDS011;18457;52.432;16.914;2023-07-22T02:24:14;8.40;;;4.40;;
31910;SDS011;18457;52.432;16.914;2023-07-22T02:26:47;6.30;;;4.60;;
31910;SDS011;18457;52.432;16.914;2023-07-22T02:29:19;7.00;;;4.60;;
31910;SDS011;18457;52.432;16.914;2023-07-22T02:31:51;9.50;;;5.40;;
31910;SDS011;18457;52.432;16.914;2023-07-22T02:34:23;6.70;;;4.70;;
31910;SDS011;18457;52.432;16.914;2023-07-22T02:36:55;6.20;;;4.70;;
31910;SDS011;18457;52.432;16.914;2023-07-22T02:39:27;7.00;;;4.90;;
31910;SDS011;18457;52.432;16.914;2023-07-22T02:41:58;7.50;;;4.80;;
31910;SDS011;18457;52.432;16.914;2023-07-22T02:44:30;7.30;;;4.80;;
31910;SDS011;18457;52.432;16.914;2023-07-22T02:47:02;8.50;;;4.70;;
31910;SDS011;18457;52.432;16.914;2023-07-22T02:49:34;7.60;;;4.50;;
31910;SDS011;18457;52.432;16.914;2023-07-22T02:52:06;6.80;;;4.70;;
31910;SDS011;18457;52.432;16.914;2023-07-22T02:54:40;7.30;;;4.70;;
31910;SDS011;18457;52.432;16.914;2023-07-22T02:57:12;5.90;;;4.60;;
31910;SDS011;18457;52.432;16.914;2023-07-22T02:59:44;7.80;;;5.00;;
31910;SDS011;18457;52.432;16.914;2023-07-22T03:04:47;8.10;;;4.90;;
31910;SDS011;18457;52.432;16.914;2023-07-22T03:07:19;8.60;;;5.40;;
31910;SDS011;18457;52.432;16.914;2023-07-22T03:09:51;8.20;;;4.70;;
31910;SDS011;18457;52.432;16.914;2023-07-22T03:12:22;7.00;;;5.10;;
31910;SDS011;18457;52.432;16.914;2023-07-22T03:14:55;6.40;;;4.80;;
31910;SDS011;18457;52.432;16.914;2023-07-22T03:17:27;8.00;;;5.30;;
31910;SDS011;18457;52.432;16.914;2023-07-22T03:20:00;11.20;;;5.50;;
31910;SDS011;18457;52.432;16.914;2023-07-22T03:22:34;8.00;;;5.20;;
31910;SDS011;18457;52.432;16.914;2023-07-22T03:25:06;7.80;;;5.50;;
31910;SDS011;18457;52.432;16.914;2023-07-22T03:27:39;6.90;;;4.80;;
31910;SDS011;18457;52.432;16.914;2023-07-22T03:30:12;7.10;;;5.10;;
31910;SDS011;18457;52.432;16.914;2023-07-22T03:32:45;6.60;;;5.80;;
31910;SDS011;18457;52.432;16.914;2023-07-22T03:35:19;7.30;;;5.80;;
31910;SDS011;18457;52.432;16.914;2023-07-22T03:37:51;7.00;;;5.20;;
31910;SDS011;18457;52.432;16.914;2023-07-22T03:40:23;7.30;;;5.30;;
31910;SDS011;18457;52.432;16.914;2023-07-22T03:42:59;7.10;;;5.30;;
31910;SDS011;18457;52.432;16.914;2023-07-22T03:45:31;9.90;;;5.80;;
31910;SDS011;18457;52.432;16.914;2023-07-22T03:48:03;7.80;;;6.20;;
31910;SDS011;18457;52.432;16.914;2023-07-22T03:50:35;9.00;;;6.00;;
31910;SDS011;18457;52.432;16.914;2023-07-22T03:53:07;8.10;;;6.30;;
31910;SDS011;18457;52.432;16.914;2023-07-22T03:55:39;10.40;;;6.00;;
31910;SDS011;18457;52.432;16.914;2023-07-22T03:58:11;9.90;;;7.00;;
31910;SDS011;18457;52.432;16.914;2023-07-22T04:00:43;10.30;;;7.00;;
31910;SDS011;18457;52.432;16.914;2023-07-22T04:03:20;7.90;;;6.70;;
31910;SDS011;18457;52.432;16.914;2023-07-22T04:05:55;9.20;;;6.30;;
31910;SDS011;18457;52.432;16.914;2023-07-22T04:08:28;14.60;;;7.70;;
31910;SDS011;18457;52.432;16.914;2023-07-22T04:11:00;9.20;;;7.10;;
31910;SDS011;18457;52.432;16.914;2023-07-22T04:13:32;9.80;;;7.00;;
31910;SDS011;18457;52.432;16.914;2023-07-22T04:16:04;11.70;;;7.10;;
31910;SDS011;18457;52.432;16.914;2023-07-22T04:18:36;15.90;;;8.20;;
31910;SDS011;18457;52.432;16.914;2023-07-22T04:21:08;9.60;;;7.40;;
31910;SDS011;18457;52.432;16.914;2023-07-22T04:23:40;13.90;;;7.50;;
31910;SDS011;18457;52.432;16.914;2023-07-22T04:26:13;10.00;;;7.30;;
31910;SDS011;18457;52.432;16.914;2023-07-22T04:28:45;10.10;;;7.10;;
31910;SDS011;18457;52.432;16.914;2023-07-22T04:31:17;9.50;;;7.60;;
31910;SDS011;18457;52.432;16.914;2023-07-22T04:33:49;14.00;;;7.40;;
31910;SDS011;18457;52.432;16.914;2023-07-22T04:36:21;11.90;;;7.50;;
31910;SDS011;18457;52.432;16.914;2023-07-22T04:38:54;12.10;;;6.90;;
31910;SDS011;18457;52.432;16.914;2023-07-22T04:41:26;9.30;;;7.50;;
31910;SDS011;18457;52.432;16.914;2023-07-22T04:43:58;9.00;;;7.10;;
31910;SDS011;18457;52.432;16.914;2023-07-22T04:46:29;19.20;;;8.30;;
31910;SDS011;18457;52.432;16.914;2023-07-22T04:49:01;13.60;;;7.50;;
31910;SDS011;18457;52.432;16.914;2023-07-22T04:51:33;10.30;;;7.70;;
31910;SDS011;18457;52.432;16.914;2023-07-22T04:54:05;14.90;;;7.30;;
31910;SDS011;18457;52.432;16.914;2023-07-22T04:56:37;13.30;;;7.60;;
31910;SDS011;18457;52.432;16.914;2023-07-22T04:59:09;11.80;;;8.30;;
31910;SDS011;18457;52.432;16.914;2023-07-22T05:01:43;10.90;;;7.40;;
31910;SDS011;18457;52.432;16.914;2023-07-22T05:04:15;9.50;;;8.20;;
31910;SDS011;18457;52.432;16.914;2023-07-22T05:06:47;12.50;;;8.50;;
31910;SDS011;18457;52.432;16.914;2023-07-22T05:09:19;9.90;;;8.40;;
31910;SDS011;18457;52.432;16.914;2023-07-22T05:11:51;15.20;;;7.80;;
31910;SDS011;18457;52.432;16.914;2023-07-22T05:14:23;10.40;;;8.00;;
31910;SDS011;18457;52.432;16.914;2023-07-22T05:16:55;12.60;;;8.50;;
31910;SDS011;18457;52.432;16.914;2023-07-22T05:19:26;9.20;;;7.80;;
31910;SDS011;18457;52.432;16.914;2023-07-22T05:21:58;13.20;;;7.20;;
31910;SDS011;18457;52.432;16.914;2023-07-22T05:24:30;12.10;;;8.50;;
31910;SDS011;18457;52.432;16.914;2023-07-22T05:27:02;10.70;;;8.30;;
31910;SDS011;18457;52.432;16.914;2023-07-22T05:29:38;12.40;;;8.70;;
31910;SDS011;18457;52.432;16.914;2023-07-22T05:32:10;11.30;;;7.80;;
31910;SDS011;18457;52.432;16.914;2023-07-22T05:35:01;9.90;;;7.40;;
31910;SDS011;18457;52.432;16.914;2023-07-22T05:40:06;8.10;;;7.30;;
31910;SDS011;18457;52.432;16.914;2023-07-22T05:42:39;11.50;;;7.60;;
31910;SDS011;18457;52.432;16.914;2023-07-22T05:45:11;12.50;;;6.50;;
31910;SDS011;18457;52.432;16.914;2023-07-22T05:47:45;12.00;;;7.50;;
31910;SDS011;18457;52.432;16.914;2023-07-22T05:50:19;10.70;;;7.00;;
31910;SDS011;18457;52.432;16.914;2023-07-22T05:52:51;9.60;;;7.10;;
31910;SDS011;18457;52.432;16.914;2023-07-22T05:55:23;8.50;;;6.60;;
31910;SDS011;18457;52.432;16.914;2023-07-22T06:00:26;12.50;;;6.50;;
31910;SDS011;18457;52.432;16.914;2023-07-22T06:02:58;12.30;;;8.10;;
31910;SDS011;18457;52.432;16.914;2023-07-22T06:05:30;8.40;;;7.20;;
31910;SDS011;18457;52.432;16.914;2023-07-22T06:08:02;10.30;;;7.40;;
31910;SDS011;18457;52.432;16.914;2023-07-22T06:10:34;9.40;;;7.50;;
31910;SDS011;18457;52.432;16.914;2023-07-22T06:13:07;8.10;;;6.70;;
31910;SDS011;18457;52.432;16.914;2023-07-22T06:15:39;10.00;;;6.70;;
31910;SDS011;18457;52.432;16.914;2023-07-22T06:18:11;8.20;;;6.70;;
31910;SDS011;18457;52.432;16.914;2023-07-22T06:20:43;12.80;;;5.80;;
31910;SDS011;18457;52.432;16.914;2023-07-22T06:23:15;20.00;;;6.10;;
31910;SDS011;18457;52.432;16.914;2023-07-22T06:28:18;6.70;;;6.00;;
31910;SDS011;18457;52.432;16.914;2023-07-22T06:30:50;9.00;;;5.60;;
31910;SDS011;18457;52.432;16.914;2023-07-22T06:33:21;11.20;;;5.30;;
31910;SDS011;18457;52.432;16.914;2023-07-22T06:35:53;8.20;;;7.00;;
31910;SDS011;18457;52.432;16.914;2023-07-22T06:38:25;10.80;;;6.90;;
31910;SDS011;18457;52.432;16.914;2023-07-22T06:40:57;8.90;;;6.40;;
31910;SDS011;18457;52.432;16.914;2023-07-22T06:43:30;8.10;;;6.20;;
31910;SDS011;18457;52.432;16.914;2023-07-22T06:46:01;7.80;;;6.70;;
31910;SDS011;18457;52.432;16.914;2023-07-22T06:48:33;6.00;;;4.80;;
31910;SDS011;18457;52.432;16.914;2023-07-22T06:51:05;8.40;;;7.20;;
31910;SDS011;18457;52.432;16.914;2023-07-22T06:53:38;10.00;;;6.80;;
31910;SDS011;18457;52.432;16.914;2023-07-22T06:56:10;8.80;;;7.50;;
31910;SDS011;18457;52.432;16.914;2023-07-22T06:58:42;8.80;;;7.00;;
31910;SDS011;18457;52.432;16.914;2023-07-22T07:01:13;12.00;;;7.70;;
31910;SDS011;18457;52.432;16.914;2023-07-22T07:03:45;10.50;;;7.70;;
31910;SDS011;18457;52.432;16.914;2023-07-22T07:06:17;10.30;;;7.60;;
31910;SDS011;18457;52.432;16.914;2023-07-22T07:08:49;7.40;;;6.70;;
31910;SDS011;18457;52.432;16.914;2023-07-22T07:11:21;5.10;;;4.60;;
31910;SDS011;18457;52.432;16.914;2023-07-22T07:13:53;10.50;;;7.10;;
31910;SDS011;18457;52.432;16.914;2023-07-22T07:16:26;7.70;;;6.90;;
31910;SDS011;18457;52.432;16.914;2023-07-22T07:19:01;10.00;;;7.20;;
31910;SDS011;18457;52.432;16.914;2023-07-22T07:21:36;9.20;;;7.60;;
31910;SDS011;18457;52.432;16.914;2023-07-22T07:24:09;7.40;;;6.70;;
31910;SDS011;18457;52.432;16.914;2023-07-22T07:26:40;7.90;;;6.90;;
31910;SDS011;18457;52.432;16.914;2023-07-22T07:29:12;7.50;;;6.70;;
31910;SDS011;18457;52.432;16.914;2023-07-22T07:32:05;7.30;;;6.50;;
31910;SDS011;18457;52.432;16.914;2023-07-22T07:34:38;7.20;;;6.50;;
31910;SDS011;18457;52.432;16.914;2023-07-22T07:37:10;7.00;;;6.10;;
31910;SDS011;18457;52.432;16.914;2023-07-22T07:39:42;8.70;;;6.70;;
31910;SDS011;18457;52.432;16.914;2023-07-22T07:42:15;7.40;;;6.00;;
31910;SDS011;18457;52.432;16.914;2023-07-22T07:44:47;9.80;;;6.10;;
31910;SDS011;18457;52.432;16.914;2023-07-22T07:47:19;12.60;;;6.40;;
31910;SDS011;18457;52.432;16.914;2023-07-22T07:49:51;6.00;;;5.40;;
31910;SDS011;18457;52.432;16.914;2023-07-22T07:52:23;8.30;;;6.20;;
31910;SDS011;18457;52.432;16.914;2023-07-22T07:54:55;6.30;;;5.60;;
31910;SDS011;18457;52.432;16.914;2023-07-22T07:57:28;6.30;;;5.30;;
31910;SDS011;18457;52.432;16.914;2023-07-22T08:00:00;6.30;;;4.90;;
31910;SDS011;18457;52.432;16.914;2023-07-22T08:02:32;6.90;;;5.30;;
31910;SDS011;18457;52.432;16.914;2023-07-22T08:05:06;9.60;;;5.20;;
31910;SDS011;18457;52.432;16.914;2023-07-22T08:07:39;5.90;;;4.90;;
31910;SDS011;18457;52.432;16.914;2023-07-22T08:10:11;7.20;;;4.70;;
31910;SDS011;18457;52.432;16.914;2023-07-22T08:12:43;4.40;;;4.00;;
31910;SDS011;18457;52.432;16.914;2023-07-22T08:15:15;5.90;;;4.50;;
31910;SDS011;18457;52.432;16.914;2023-07-22T08:17:47;5.20;;;4.00;;
31910;SDS011;18457;52.432;16.914;2023-07-22T08:20:19;5.50;;;4.10;;
31910;SDS011;18457;52.432;16.914;2023-07-22T08:22:51;4.80;;;4.30;;
31910;SDS011;18457;52.432;16.914;2023-07-22T08:25:23;6.90;;;4.10;;
31910;SDS011;18457;52.432;16.914;2023-07-22T08:27:56;4.50;;;4.10;;
31910;SDS011;18457;52.432;16.914;2023-07-22T08:30:28;4.60;;;4.20;;
31910;SDS011;18457;52.432;16.914;2023-07-22T08:33:00;8.40;;;4.00;;
31910;SDS011;18457;52.432;16.914;2023-07-22T08:35:33;11.70;;;3.80;;
31910;SDS011;18457;52.432;16.914;2023-07-22T08:38:05;7.00;;;4.40;;
31910;SDS011;18457;52.432;16.914;2023-07-22T08:40:38;3.60;;;3.30;;
31910;SDS011;18457;52.432;16.914;2023-07-22T08:43:11;4.30;;;3.90;;
31910;SDS011;18457;52.432;16.914;2023-07-22T08:45:42;6.80;;;4.00;;
31910;SDS011;18457;52.432;16.914;2023-07-22T08:48:16;3.60;;;3.30;;
31910;SDS011;18457;52.432;16.914;2023-07-22T08:50:50;4.50;;;3.60;;
31910;SDS011;18457;52.432;16.914;2023-07-22T08:53:25;4.30;;;3.30;;
31910;SDS011;18457;52.432;16.914;2023-07-22T08:56:00;3.30;;;3.00;;
31910;SDS011;18457;52.432;16.914;2023-07-22T08:58:32;4.00;;;3.50;;
31910;SDS011;18457;52.432;16.914;2023-07-22T09:01:06;3.50;;;2.90;;
31910;SDS011;18457;52.432;16.914;2023-07-22T09:03:39;3.20;;;2.90;;
31910;SDS011;18457;52.432;16.914;2023-07-22T09:06:13;3.20;;;2.90;;
31910;SDS011;18457;52.432;16.914;2023-07-22T09:08:45;4.50;;;3.30;;
31910;SDS011;18457;52.432;16.914;2023-07-22T09:11:17;4.80;;;3.20;;
31910;SDS011;18457;52.432;16.914;2023-07-22T09:13:51;5.50;;;3.00;;
31910;SDS011;18457;52.432;16.914;2023-07-22T09:16:24;3.80;;;2.60;;
31910;SDS011;18457;52.432;16.914;2023-07-22T09:19:00;6.70;;;3.30;;
31910;SDS011;18457;52.432;16.914;2023-07-22T09:21:35;4.70;;;3.00;;
31910;SDS011;18457;52.432;16.914;2023-07-22T09:24:20;3.40;;;2.70;;
31910;SDS011;18457;52.432;16.914;2023-07-22T09:26:54;4.20;;;2.80;;
31910;SDS011;18457;52.432;16.914;2023-07-22T09:29:33;8.60;;;4.50;;
31910;SDS011;18457;52.432;16.914;2023-07-22T09:32:07;3.70;;;2.70;;
31910;SDS011;18457;52.432;16.914;2023-07-22T09:34:39;3.70;;;2.80;;
31910;SDS011;18457;52.432;16.914;2023-07-22T09:37:29;3.90;;;3.00;;
31910;SDS011;18457;52.432;16.914;2023-07-22T09:40:14;3.40;;;2.60;;
31910;SDS011;18457;52.432;16.914;2023-07-22T09:42:50;3.20;;;2.70;;
31910;SDS011;18457;52.432;16.914;2023-07-22T09:45:23;4.20;;;2.70;;
31910;SDS011;18457;52.432;16.914;2023-07-22T09:47:56;3.60;;;2.80;;
31910;SDS011;18457;52.432;16.914;2023-07-22T09:50:29;3.50;;;2.60;;
31910;SDS011;18457;52.432;16.914;2023-07-22T09:53:01;4.20;;;3.00;;
31910;SDS011;18457;52.432;16.914;2023-07-22T09:55:33;5.50;;;2.80;;
31910;SDS011;18457;52.432;16.914;2023-07-22T09:58:05;7.20;;;3.10;;
31910;SDS011;18457;52.432;16.914;2023-07-22T10:00:38;4.90;;;3.00;;
31910;SDS011;18457;52.432;16.914;2023-07-22T10:03:12;4.60;;;2.90;;
31910;SDS011;18457;52.432;16.914;2023-07-22T10:05:49;4.50;;;3.10;;
31910;SDS011;18457;52.432;16.914;2023-07-22T10:08:22;6.00;;;3.00;;
31910;SDS011;18457;52.432;16.914;2023-07-22T10:10:54;4.40;;;3.30;;
31910;SDS011;18457;52.432;16.914;2023-07-22T10:13:30;6.30;;;2.90;;
31910;SDS011;18457;52.432;16.914;2023-07-22T10:16:02;4.40;;;3.00;;
31910;SDS011;18457;52.432;16.914;2023-07-22T10:18:35;4.60;;;2.70;;
31910;SDS011;18457;52.432;16.914;2023-07-22T10:21:10;2.80;;;2.40;;
31910;SDS011;18457;52.432;16.914;2023-07-22T10:23:44;4.40;;;3.30;;
31910;SDS011;18457;52.432;16.914;2023-07-22T10:26:18;4.10;;;2.90;;
31910;SDS011;18457;52.432;16.914;2023-07-22T10:29:10;4.30;;;3.00;;
31910;SDS011;18457;52.432;16.914;2023-07-22T10:31:42;5.80;;;3.00;;
31910;SDS011;18457;52.432;16.914;2023-07-22T10:34:14;4.50;;;3.00;;
31910;SDS011;18457;52.432;16.914;2023-07-22T10:36:46;4.70;;;3.20;;
31910;SDS011;18457;52.432;16.914;2023-07-22T10:39:28;6.20;;;3.20;;
31910;SDS011;18457;52.432;16.914;2023-07-22T10:42:03;4.20;;;3.10;;
31910;SDS011;18457;52.432;16.914;2023-07-22T10:44:37;4.60;;;3.30;;
31910;SDS011;18457;52.432;16.914;2023-07-22T10:47:09;10.70;;;4.40;;
31910;SDS011;18457;52.432;16.914;2023-07-22T10:50:06;4.00;;;3.20;;
31910;SDS011;18457;52.432;16.914;2023-07-22T10:52:40;3.70;;;3.20;;
31910;SDS011;18457;52.432;16.914;2023-07-22T10:55:17;4.80;;;3.50;;
31910;SDS011;18457;52.432;16.914;2023-07-22T10:57:50;4.10;;;2.70;;
31910;SDS011;18457;52.432;16.914;2023-07-22T11:00:25;2.70;;;2.30;;
31910;SDS011;18457;52.432;16.914;2023-07-22T11:03:10;6.30;;;3.00;;
31910;SDS011;18457;52.432;16.914;2023-07-22T11:05:48;4.10;;;2.90;;
31910;SDS011;18457;52.432;16.914;2023-07-22T11:08:38;5.90;;;2.90;;
31910;SDS011;18457;52.432;16.914;2023-07-22T11:11:11;9.00;;;3.10;;
31910;SDS011;18457;52.432;16.914;2023-07-22T11:16:13;3.00;;;2.70;;
31910;SDS011;18457;52.432;16.914;2023-07-22T11:18:47;4.00;;;2.90;;
31910;SDS011;18457;52.432;16.914;2023-07-22T11:21:19;6.20;;;3.10;;
31910;SDS011;18457;52.432;16.914;2023-07-22T12:26:49;4.50;;;2.80;;
31910;SDS011;18457;52.432;16.914;2023-07-22T12:29:38;3.80;;;2.80;;
31910;SDS011;18457;52.432;16.914;2023-07-22T12:32:10;3.80;;;3.50;;
31910;SDS011;18457;52.432;16.914;2023-07-22T12:34:42;7.00;;;3.50;;
31910;SDS011;18457;52.432;16.914;2023-07-22T12:37:14;6.00;;;3.50;;
31910;SDS011;18457;52.432;16.914;2023-07-22T12:39:46;3.30;;;2.80;;
31910;SDS011;18457;52.432;16.914;2023-07-22T12:42:18;5.50;;;2.90;;
31910;SDS011;18457;52.432;16.914;2023-07-22T12:44:50;6.60;;;3.70;;
31910;SDS011;18457;52.432;16.914;2023-07-22T12:47:23;3.40;;;3.00;;
31910;SDS011;18457;52.432;16.914;2023-07-22T12:49:55;4.10;;;3.00;;
31910;SDS011;18457;52.432;16.914;2023-07-22T12:52:28;4.50;;;3.10;;
31910;SDS011;18457;52.432;16.914;2023-07-22T12:55:00;3.50;;;2.70;;
31910;SDS011;18457;52.432;16.914;2023-07-22T12:57:32;4.40;;;3.50;;
31910;SDS011;18457;52.432;16.914;2023-07-22T13:00:05;4.80;;;3.40;;
31910;SDS011;18457;52.432;16.914;2023-07-22T13:02:40;5.50;;;3.70;;
31910;SDS011;18457;52.432;16.914;2023-07-22T13:05:12;6.80;;;3.60;;
31910;SDS011;18457;52.432;16.914;2023-07-22T13:07:44;6.40;;;3.10;;
31910;SDS011;18457;52.432;16.914;2023-07-22T13:10:17;5.40;;;3.10;;
31910;SDS011;18457;52.432;16.914;2023-07-22T13:12:53;6.30;;;3.50;;
31910;SDS011;18457;52.432;16.914;2023-07-22T13:15:25;4.20;;;3.10;;
31910;SDS011;18457;52.432;16.914;2023-07-22T13:17:57;5.40;;;3.10;;
31910;SDS011;18457;52.432;16.914;2023-07-22T13:20:29;5.50;;;2.70;;
31910;SDS011;18457;52.432;16.914;2023-07-22T13:23:01;4.10;;;2.90;;
31910;SDS011;18457;52.432;16.914;2023-07-22T13:25:33;4.80;;;2.70;;
31910;SDS011;18457;52.432;16.914;2023-07-22T13:28:05;3.80;;;2.80;;
31910;SDS011;18457;52.432;16.914;2023-07-22T13:30:37;3.70;;;2.80;;
31910;SDS011;18457;52.432;16.914;2023-07-22T13:33:09;3.90;;;3.10;;
31910;SDS011;18457;52.432;16.914;2023-07-22T13:35:41;3.30;;;2.60;;
31910;SDS011;18457;52.432;16.914;2023-07-22T13:38:13;4.10;;;2.80;;
31910;SDS011;18457;52.432;16.914;2023-07-22T13:40:45;4.00;;;3.20;;
31910;SDS011;18457;52.432;16.914;2023-07-22T13:43:17;3.80;;;2.90;;
31910;SDS011;18457;52.432;16.914;2023-07-22T13:45:49;4.60;;;3.30;;
31910;SDS011;18457;52.432;16.914;2023-07-22T13:48:21;5.00;;;3.20;;
31910;SDS011;18457;52.432;16.914;2023-07-22T13:50:53;4.40;;;3.20;;
31910;SDS011;18457;52.432;16.914;2023-07-22T13:53:25;4.30;;;2.80;;
31910;SDS011;18457;52.432;16.914;2023-07-22T13:55:58;4.70;;;2.70;;
31910;SDS011;18457;52.432;16.914;2023-07-22T13:58:30;4.70;;;3.10;;
31910;SDS011;18457;52.432;16.914;2023-07-22T14:01:02;5.00;;;3.10;;
31910;SDS011;18457;52.432;16.914;2023-07-22T14:03:35;4.30;;;2.70;;
31910;SDS011;18457;52.432;16.914;2023-07-22T14:06:08;4.00;;;3.10;;
31910;SDS011;18457;52.432;16.914;2023-07-22T14:08:40;4.90;;;3.40;;
31910;SDS011;18457;52.432;16.914;2023-07-22T14:11:12;6.30;;;3.10;;
31910;SDS011;18457;52.432;16.914;2023-07-22T14:13:44;5.00;;;3.50;;
31910;SDS011;18457;52.432;16.914;2023-07-22T14:16:16;4.50;;;2.60;;
31910;SDS011;18457;52.432;16.914;2023-07-22T14:18:51;4.10;;;3.10;;
31910;SDS011;18457;52.432;16.914;2023-07-22T14:21:24;3.70;;;2.80;;
31910;SDS011;18457;52.432;16.914;2023-07-22T14:23:57;6.00;;;3.10;;
31910;SDS011;18457;52.432;16.914;2023-07-22T14:26:29;4.00;;;3.20;;
31910;SDS011;18457;52.432;16.914;2023-07-22T14:29:02;6.20;;;3.00;;
31910;SDS011;18457;52.432;16.914;2023-07-22T14:31:34;3.60;;;2.80;;
31910;SDS011;18457;52.432;16.914;2023-07-22T14:34:06;9.40;;;3.80;;
31910;SDS011;18457;52.432;16.914;2023-07-22T14:36:38;4.20;;;2.90;;
31910;SDS011;18457;52.432;16.914;2023-07-22T14:39:13;9.00;;;2.90;;
31910;SDS011;18457;52.432;16.914;2023-07-22T14:41:46;10.80;;;4.10;;
31910;SDS011;18457;52.432;16.914;2023-07-22T14:44:19;3.40;;;2.70;;
31910;SDS011;18457;52.432;16.914;2023-07-22T14:46:51;5.00;;;3.20;;
31910;SDS011;18457;52.432;16.914;2023-07-22T14:49:23;6.50;;;3.00;;
31910;SDS011;18457;52.432;16.914;2023-07-22T14:51:56;4.00;;;2.60;;
31910;SDS011;18457;52.432;16.914;2023-07-22T14:54:28;5.70;;;3.10;;
31910;SDS011;18457;52.432;16.914;2023-07-22T14:57:00;5.10;;;2.80;;
31910;SDS011;18457;52.432;16.914;2023-07-22T14:59:32;5.00;;;3.00;;
31910;SDS011;18457;52.432;16.914;2023-07-22T15:02:05;4.30;;;3.10;;
31910;SDS011;18457;52.432;16.914;2023-07-22T15:04:37;5.40;;;2.70;;
31910;SDS011;18457;52.432;16.914;2023-07-22T15:07:10;4.80;;;2.70;;
31910;SDS011;18457;52.432;16.914;2023-07-22T15:09:42;3.90;;;2.50;;
31910;SDS011;18457;52.432;16.914;2023-07-22T15:12:14;3.60;;;2.60;;
31910;SDS011;18457;52.432;16.914;2023-07-22T15:14:46;6.70;;;2.30;;
31910;SDS011;18457;52.432;16.914;2023-07-22T15:17:19;5.00;;;2.80;;
31910;SDS011;18457;52.432;16.914;2023-07-22T15:19:52;5.50;;;2.70;;
31910;SDS011;18457;52.432;16.914;2023-07-22T15:22:24;4.30;;;3.00;;
31910;SDS011;18457;52.432;16.914;2023-07-22T15:24:57;4.80;;;3.00;;
31910;SDS011;18457;52.432;16.914;2023-07-22T15:27:29;6.50;;;3.10;;
31910;SDS011;18457;52.432;16.914;2023-07-22T15:30:01;3.80;;;2.90;;
31910;SDS011;18457;52.432;16.914;2023-07-22T15:32:34;4.10;;;2.60;;
31910;SDS011;18457;52.432;16.914;2023-07-22T15:35:07;4.50;;;2.70;;
31910;SDS011;18457;52.432;16.914;2023-07-22T15:37:39;5.00;;;2.60;;
31910;SDS011;18457;52.432;16.914;2023-07-22T15:40:11;3.70;;;3.00;;
31910;SDS011;18457;52.432;16.914;2023-07-22T15:42:43;3.60;;;2.50;;
31910;SDS011;18457;52.432;16.914;2023-07-22T15:45:15;3.70;;;2.80;;
31910;SDS011;18457;52.432;16.914;2023-07-22T15:47:48;3.90;;;2.70;;
31910;SDS011;18457;52.432;16.914;2023-07-22T15:50:20;3.20;;;2.90;;
31910;SDS011;18457;52.432;16.914;2023-07-22T15:52:52;4.90;;;3.00;;
31910;SDS011;18457;52.432;16.914;2023-07-22T15:55:24;3.70;;;3.00;;
31910;SDS011;18457;52.432;16.914;2023-07-22T16:00:27;6.50;;;2.50;;
31910;SDS011;18457;52.432;16.914;2023-07-22T16:05:30;3.90;;;2.50;;
31910;SDS011;18457;52.432;16.914;2023-07-22T16:08:03;6.50;;;3.50;;
31910;SDS011;18457;52.432;16.914;2023-07-22T16:10:36;9.40;;;2.40;;
31910;SDS011;18457;52.432;16.914;2023-07-22T16:13:08;4.60;;;2.80;;
31910;SDS011;18457;52.432;16.914;2023-07-22T16:15:40;4.60;;;2.60;;
31910;SDS011;18457;52.432;16.914;2023-07-22T16:18:12;3.30;;;2.80;;
31910;SDS011;18457;52.432;16.914;2023-07-22T16:20:44;4.70;;;3.10;;
31910;SDS011;18457;52.432;16.914;2023-07-22T16:23:16;4.20;;;2.80;;
31910;SDS011;18457;52.432;16.914;2023-07-22T16:25:48;5.60;;;3.10;;
31910;SDS011;18457;52.432;16.914;2023-07-22T16:28:20;4.70;;;2.90;;
31910;SDS011;18457;52.432;16.914;2023-07-22T16:30:52;7.10;;;3.10;;
31910;SDS011;18457;52.432;16.914;2023-07-22T16:35:55;4.30;;;2.70;;
31910;SDS011;18457;52.432;16.914;2023-07-22T16:38:27;5.10;;;3.00;;